Albany, Iowa
Current Conditions -  °F | °C
As of 1:15 AM on Thursday 18 Dec 2014 (Local Time) from KOLZ Reporting Station
Clear Clear  
Wind Chill:   Ceiling: Unl
Heat Index: 16°   Visibility: 10mi
Dew Point: 12°   Wind: 5mph
Humidity: 86%   Direction: 20°NNE
Pressure: 30.28"   Gusts: NA
Location:  42.8663°N, 91.8396°W
Report Text: KOLZ 180715Z AUTO 02004KT 10SM CLR M09/M11 A3028 RMK AO2
Loading
Personal Weather Stations






























Interactive Weather Map New forecast layout! Learn more

10-Day Weather Forecast

Advertisements
Track Severe Weather on mobile